Time;durP1;ratioP1;P1;durP2;ratioP2;P2;SDS_P1;SDS_P2;PMS_P1;PMS_P2;Temp;Humidity;BMP_temperature;BMP_pressure;BME280_temperature;BME280_humidity;BME280_pressure;Samples;Min_cycle;Max_cycle;Signal;HPM_P1;HPM_P2
2024/03/14 00:00:42;;;;;;;;;;;;;;;9.68;100.00;100120.53;5019785;28;19925;-74
2024/03/14 00:03:07;;;;;;;;;;;;;;;9.73;100.00;100124.16;5017957;28;19925;-74
2024/03/14 00:05:33;;;;;;;;;;;;;;;9.81;100.00;100129.59;5019499;28;19921;-73
2024/03/14 00:08:00;;;;;;;;;;;;;;;9.84;100.00;100114.22;5019711;28;20276;-74
2024/03/14 00:10:26;;;;;;;;;;;;;;;9.62;100.00;100121.22;5021747;28;19924;-74
2024/03/14 00:12:51;;;;;;;;;;;;;;;9.50;100.00;100119.06;5017432;28;20012;-73
2024/03/14 00:15:17;;;;;;;;;;;;;;;9.34;100.00;100114.19;5020550;28;20383;-73
2024/03/14 00:17:44;;;;;;;;;;;;;;;9.25;100.00;100108.72;5012972;28;20307;-74
2024/03/14 00:20:12;;;;;;;;;;;;;;;9.07;100.00;100108.09;4969485;28;19917;-74
2024/03/14 00:22:41;;;;;;;;;;;;;;;9.02;100.00;100108.72;5023891;28;19925;-74
2024/03/14 00:25:09;;;;;;;;;;;;;;;9.09;100.00;100108.13;4996870;28;19951;-74
2024/03/14 00:27:38;;;;;;;;;;;;;;;9.07;100.00;100100.38;5017620;28;19957;-74
2024/03/14 00:30:10;;;;;;;;;;;;;;;9.16;100.00;100092.09;5022130;28;19925;-73
2024/03/14 00:32:36;;;;;;;;;;;;;;;9.16;100.00;100092.09;5013452;28;20020;-74
2024/03/14 00:35:02;;;;;;;;;;;;;;;9.17;100.00;100090.38;5018782;28;20016;-74
2024/03/14 00:37:28;;;;;;;;;;;;;;;9.09;100.00;100087.53;5020252;28;20004;-74
2024/03/14 00:39:53;;;;;;;;;;;;;;;8.98;100.00;100086.25;5018349;28;20015;-74
2024/03/14 00:42:20;;;;;;;;;;;;;;;8.94;100.00;100090.41;5020012;28;19925;-74
2024/03/14 00:44:45;;;;;;;;;;;;;;;9.03;100.00;100093.34;5009855;28;19922;-73
2024/03/14 00:47:10;;;;;;;;;;;;;;;9.09;100.00;100084.09;5009319;28;20376;-73
2024/03/14 00:49:36;;;;;;;;;;;;;;;9.18;100.00;100089.56;4991109;28;19921;-74
2024/03/14 00:52:01;;;;;;;;;;;;;;;9.26;100.00;100085.59;4998631;28;19921;-73
2024/03/14 00:54:27;;;;;;;;;;;;;;;9.09;100.00;100100.41;5009634;28;19954;-73
2024/03/14 00:56:53;;;;;;;;;;;;;;;9.07;100.00;100091.75;5005564;28;19926;-73
2024/03/14 00:59:18;;;;;;;;;;;;;;;8.98;100.00;100086.25;5006888;28;19924;-73
2024/03/14 01:01:46;;;;;;;;;;;;;;;8.80;100.00;100091.59;5009790;28;19921;-72
2024/03/14 01:04:12;;;;;;;;;;;;;;;8.70;100.00;100091.25;5009486;28;19917;-73
2024/03/14 01:06:38;;;;;;;;;;;;;;;8.63;100.00;100085.81;5010255;28;20292;-73
2024/03/14 01:09:06;;;;;;;;;;;;;;;8.47;100.00;100084.34;5009697;28;19997;-73
2024/03/14 01:11:32;;;;;;;;;;;;;;;8.28;100.00;100082.72;4983237;28;19932;-73
2024/03/14 01:13:57;;;;;;;;;;;;;;;8.17;100.00;100082.28;5009986;28;20339;-73
2024/03/14 01:16:22;;;;;;;;;;;;;;;7.86;100.00;100073.31;5010583;28;19917;-73
2024/03/14 01:18:50;;;;;;;;;;;;;;;7.73;100.00;100069.34;5009955;28;19924;-72
2024/03/14 01:21:15;;;;;;;;;;;;;;;7.78;100.00;100065.28;5009958;28;20280;-73
2024/03/14 01:23:41;;;;;;;;;;;;;;;7.67;100.00;100063.97;5009533;28;19929;-73
2024/03/14 01:26:06;;;;;;;;;;;;;;;7.78;100.00;100065.28;5010029;28;19925;-73
2024/03/14 01:28:31;;;;;;;;;;;;;;;7.78;100.00;100067.84;5009869;28;19921;-73
2024/03/14 01:31:00;;;;;;;;;;;;;;;7.73;100.00;100066.78;5008903;28;19922;-74
2024/03/14 01:33:25;;;;;;;;;;;;;;;7.76;100.00;100066.91;5010807;28;19926;-73
2024/03/14 01:35:58;;;;;;;;;;;;;;;7.58;100.00;100070.44;5010102;28;19925;-73
2024/03/14 01:38:24;;;;;;;;;;;;;;;7.66;100.00;100064.75;5002393;28;19917;-72
2024/03/14 01:40:49;;;;;;;;;;;;;;;7.78;100.00;100070.41;5009796;28;19921;-73
2024/03/14 01:43:14;;;;;;;;;;;;;;;7.73;100.00;100070.22;5009772;28;19921;-73
2024/03/14 01:45:41;;;;;;;;;;;;;;;7.84;100.00;100073.25;5009703;28;19921;-73
2024/03/14 01:48:07;;;;;;;;;;;;;;;7.89;100.00;100071.75;5010251;28;19920;-73
2024/03/14 01:50:32;;;;;;;;;;;;;;;7.89;100.00;100070.88;5010407;28;19917;-73
2024/03/14 01:52:59;;;;;;;;;;;;;;;8.01;100.00;100076.53;5009326;28;19925;-73
2024/03/14 01:55:24;;;;;;;;;;;;;;;8.07;100.00;100068.16;4998163;28;19922;-72
2024/03/14 01:57:50;;;;;;;;;;;;;;;8.07;100.00;100073.31;5009765;28;19921;-73
2024/03/14 02:00:18;;;;;;;;;;;;;;;8.10;100.00;100076.88;5009753;28;19937;-73
2024/03/14 02:02:44;;;;;;;;;;;;;;;7.99;100.00;100066.97;5009910;28;19984;-73
2024/03/14 02:05:21;;;;;;;;;;;;;;;7.73;100.00;100070.22;5010016;28;19968;-73
2024/03/14 02:07:46;;;;;;;;;;;;;;;7.76;100.00;100070.38;5009800;28;20291;-73
2024/03/14 02:10:12;;;;;;;;;;;;;;;7.77;100.00;100071.22;5008030;28;19929;-73
2024/03/14 02:12:38;;;;;;;;;;;;;;;7.73;100.00;100069.34;5009163;28;19921;-73
2024/03/14 02:15:04;;;;;;;;;;;;;;;7.76;100.00;100066.91;5009024;28;19928;-73
2024/03/14 02:17:30;;;;;;;;;;;;;;;7.77;100.00;100072.09;5013123;28;19917;-73
2024/03/14 02:19:55;;;;;;;;;;;;;;;7.67;100.00;100072.53;4994331;28;19921;-72
2024/03/14 02:22:21;;;;;;;;;;;;;;;7.72;100.00;100073.59;5006134;28;19929;-73
2024/03/14 02:24:47;;;;;;;;;;;;;;;7.71;100.00;100070.97;5012683;28;20440;-73
2024/03/14 02:27:13;;;;;;;;;;;;;;;7.77;100.00;100071.22;5012886;28;20422;-73
2024/03/14 02:29:38;;;;;;;;;;;;;;;7.78;100.00;100075.56;5012497;28;19917;-73
2024/03/14 02:32:04;;;;;;;;;;;;;;;7.85;100.00;100081.81;5012629;28;19921;-72
2024/03/14 02:34:30;;;;;;;;;;;;;;;7.89;100.00;100071.75;5012441;28;20303;-72
2024/03/14 02:36:56;;;;;;;;;;;;;;;7.98;100.00;100071.25;5012569;28;19980;-73
2024/03/14 02:39:22;;;;;;;;;;;;;;;8.06;100.00;100080.16;5013241;28;19968;-73
2024/03/14 02:41:50;;;;;;;;;;;;;;;8.09;100.00;100084.53;5012292;28;19968;-73
2024/03/14 02:44:16;;;;;;;;;;;;;;;8.09;100.00;100079.41;5012767;28;20450;-73
2024/03/14 02:46:42;;;;;;;;;;;;;;;8.15;100.00;100077.06;5008359;28;19925;-73
2024/03/14 02:49:12;;;;;;;;;;;;;;;8.22;100.00;100075.63;5012055;28;20706;-73
2024/03/14 02:51:37;;;;;;;;;;;;;;;8.33;100.00;100074.34;5012172;28;19972;-73
2024/03/14 02:54:05;;;;;;;;;;;;;;;8.47;100.00;100077.47;5012356;28;20385;-73
2024/03/14 02:56:31;;;;;;;;;;;;;;;8.60;100.00;100077.97;5012618;28;20315;-73
2024/03/14 02:58:56;;;;;;;;;;;;;;;8.70;100.00;100080.97;5012416;28;19918;-73
2024/03/14 03:01:22;;;;;;;;;;;;;;;8.82;100.00;100085.72;5012128;28;19929;-74
2024/03/14 03:03:47;;;;;;;;;;;;;;;8.90;100.00;100084.28;5011765;28;19963;-73
2024/03/14 03:06:13;;;;;;;;;;;;;;;8.95;100.00;100081.88;5012109;28;19965;-73
2024/03/14 03:08:38;;;;;;;;;;;;;;;9.03;100.00;100095.03;5012064;28;19925;-73
2024/03/14 03:11:03;;;;;;;;;;;;;;;9.09;100.00;100091.81;5012504;28;20349;-73
2024/03/14 03:13:29;;;;;;;;;;;;;;;9.15;100.00;100087.75;5012411;28;19987;-73
2024/03/14 03:15:54;;;;;;;;;;;;;;;9.21;100.00;100082.84;5011977;28;19921;-73
2024/03/14 03:18:19;;;;;;;;;;;;;;;9.27;100.00;100092.50;5011581;28;19944;-73
2024/03/14 03:20:45;;;;;;;;;;;;;;;9.32;100.00;100087.50;5011411;28;20040;-74
2024/03/14 03:23:10;;;;;;;;;;;;;;;9.31;100.00;100091.78;5011480;28;19973;-73
2024/03/14 03:25:35;;;;;;;;;;;;;;;9.28;100.00;100093.38;5011472;28;19921;-73
2024/03/14 03:28:02;;;;;;;;;;;;;;;9.20;100.00;100093.94;5011482;28;19918;-73
2024/03/14 03:30:28;;;;;;;;;;;;;;;9.14;100.00;100088.56;5005579;28;19975;-73
2024/03/14 03:32:54;;;;;;;;;;;;;;;9.03;100.00;100095.94;5011615;28;20346;-73
2024/03/14 03:35:21;;;;;;;;;;;;;;;8.94;100.00;100098.16;5011598;28;19944;-73
2024/03/14 03:37:47;;;;;;;;;;;;;;;8.84;100.00;100096.06;5011656;28;19972;-73
2024/03/14 03:40:21;;;;;;;;;;;;;;;8.78;100.00;100106.97;5011536;28;20346;-73
2024/03/14 03:42:47;;;;;;;;;;;;;;;8.73;100.00;100098.22;5011512;28;20012;-73
2024/03/14 03:45:13;;;;;;;;;;;;;;;8.75;100.00;100104.31;5010916;28;20012;-73
2024/03/14 03:47:39;;;;;;;;;;;;;;;8.70;100.00;100106.69;5011493;28;19976;-73
2024/03/14 03:50:08;;;;;;;;;;;;;;;8.39;100.00;100040.28;4986244;28;19936;-74
2024/03/14 03:52:33;;;;;;;;;;;;;;;8.84;100.00;100107.22;5011127;28;19965;-73
2024/03/14 03:54:58;;;;;;;;;;;;;;;8.73;100.00;100106.81;5011282;28;20273;-73
2024/03/14 03:57:24;;;;;;;;;;;;;;;8.71;100.00;100107.56;5011695;28;19918;-74
2024/03/14 03:59:50;;;;;;;;;;;;;;;8.72;100.00;100109.31;5010933;28;19956;-73
2024/03/14 04:02:18;;;;;;;;;;;;;;;8.67;100.00;100109.16;5011450;28;19969;-73
2024/03/14 04:04:43;;;;;;;;;;;;;;;8.66;100.00;100109.06;5011090;28;19922;-73
2024/03/14 04:07:14;;;;;;;;;;;;;;;8.64;100.00;100103.03;5011136;28;20004;-73
2024/03/14 04:09:44;;;;;;;;;;;;;;;8.66;100.00;100106.50;5010557;28;20316;-73
2024/03/14 04:12:10;;;;;;;;;;;;;;;8.71;100.00;100102.41;5010930;28;19925;-73
2024/03/14 04:14:40;;;;;;;;;;;;;;;8.71;100.00;100111.03;5011211;28;19917;-73
2024/03/14 04:17:06;;;;;;;;;;;;;;;8.78;100.00;100111.25;5010718;28;19922;-73
2024/03/14 04:19:31;;;;;;;;;;;;;;;8.85;100.00;100115.84;5010774;28;20019;-73
2024/03/14 04:21:58;;;;;;;;;;;;;;;8.93;100.00;100116.13;5010354;28;19956;-73
2024/03/14 04:24:24;;;;;;;;;;;;;;;8.95;100.00;100119.59;5010702;28;19922;-73
2024/03/14 04:26:49;;;;;;;;;;;;;;;8.96;100.00;100119.69;5010439;28;19967;-73
2024/03/14 04:29:16;;;;;;;;;;;;;;;9.01;100.00;100119.84;5010625;28;20306;-73
2024/03/14 04:31:42;;;;;;;;;;;;;;;9.03;100.00;100116.53;5010523;28;19922;-73
2024/03/14 04:34:09;;;;;;;;;;;;;;;8.66;100.00;100065.34;5010538;28;19925;-73
2024/03/14 04:36:37;;;;;;;;;;;;;;;8.96;100.00;100123.94;5010506;28;19929;-73
2024/03/14 04:39:03;;;;;;;;;;;;;;;8.92;100.00;100122.09;4992116;28;20342;-73
2024/03/14 04:41:35;;;;;;;;;;;;;;;8.89;100.00;100122.84;5010308;28;19917;-73
2024/03/14 04:44:01;;;;;;;;;;;;;;;8.90;100.00;100116.88;5010097;28;19921;-73
2024/03/14 04:46:27;;;;;;;;;;;;;;;8.88;100.00;100118.50;5010134;28;20405;-73
2024/03/14 04:48:52;;;;;;;;;;;;;;;8.87;100.00;100120.22;5010066;28;20008;-73
2024/03/14 04:51:18;;;;;;;;;;;;;;;8.86;100.00;100120.13;5005077;28;20013;-73
2024/03/14 04:53:44;;;;;;;;;;;;;;;8.86;100.00;100120.13;5010469;28;19965;-73
2024/03/14 04:56:09;;;;;;;;;;;;;;;8.85;100.00;100123.56;5010079;28;19952;-73
2024/03/14 04:58:37;;;;;;;;;;;;;;;8.84;100.00;100135.53;5010289;28;19972;-73
2024/03/14 05:01:02;;;;;;;;;;;;;;;8.86;100.00;100135.59;5010120;28;19923;-74
2024/03/14 05:03:31;;;;;;;;;;;;;;;8.87;100.00;100133.09;5010261;28;19921;-73
2024/03/14 05:05:56;;;;;;;;;;;;;;;8.86;100.00;100141.63;5009813;28;19918;-73
2024/03/14 05:08:22;;;;;;;;;;;;;;;8.83;100.00;100130.34;5010508;28;20363;-73
2024/03/14 05:10:47;;;;;;;;;;;;;;;8.82;100.00;100141.44;5010235;28;20430;-73
2024/03/14 05:13:33;;;;;;;;;;;;;;;8.79;100.00;100138.75;5009943;28;20416;-73
2024/03/14 05:15:59;;;;;;;;;;;;;;;8.83;100.00;100141.50;4953164;28;20638;-73
2024/03/14 05:18:24;;;;;;;;;;;;;;;8.77;100.00;100150.69;4952532;28;19928;-73
2024/03/14 05:20:49;;;;;;;;;;;;;;;8.76;100.00;100149.81;4957371;28;19965;-73
2024/03/14 05:23:15;;;;;;;;;;;;;;;8.78;100.00;100153.31;4951602;28;19929;-74
2024/03/14 05:25:40;;;;;;;;;;;;;;;8.76;100.00;100146.34;4940531;28;20013;-73
2024/03/14 05:28:06;;;;;;;;;;;;;;;8.69;100.00;100155.53;4945713;28;20021;-74
2024/03/14 05:30:31;;;;;;;;;;;;;;;8.62;100.00;100143.25;4943594;28;19922;-74
2024/03/14 05:32:59;;;;;;;;;;;;;;;8.56;100.00;100151.56;4959496;28;19922;-74
2024/03/14 05:35:24;;;;;;;;;;;;;;;8.53;100.00;100148.91;4958526;28;19980;-74
2024/03/14 05:37:50;;;;;;;;;;;;;;;8.56;100.00;100149.91;4954419;28;19923;-74
2024/03/14 05:40:15;;;;;;;;;;;;;;;8.57;100.00;100148.19;4957704;28;19964;-74
2024/03/14 05:42:41;;;;;;;;;;;;;;;8.56;100.00;100149.91;4958229;28;20466;-74
2024/03/14 05:45:07;;;;;;;;;;;;;;;8.64;100.00;100149.34;4958415;28;19969;-74
2024/03/14 05:47:35;;;;;;;;;;;;;;;8.63;100.00;100156.16;4994953;28;19927;-74
2024/03/14 05:50:06;;;;;;;;;;;;;;;8.67;100.00;100152.91;5010463;28;19925;-73
2024/03/14 05:52:32;;;;;;;;;;;;;;;8.70;100.00;100158.16;5013819;28;19929;-73
2024/03/14 05:54:58;;;;;;;;;;;;;;;8.76;100.00;100159.22;5014334;28;20067;-73
2024/03/14 05:57:23;;;;;;;;;;;;;;;8.79;100.00;100165.38;5014114;28;20008;-75
2024/03/14 05:59:51;;;;;;;;;;;;;;;8.86;100.00;100162.22;5019137;28;20419;-72
2024/03/14 06:02:16;;;;;;;;;;;;;;;8.91;100.00;100167.56;5014941;28;19913;-73
2024/03/14 06:04:42;;;;;;;;;;;;;;;8.97;100.00;100174.63;5013700;28;19944;-74
2024/03/14 06:07:07;;;;;;;;;;;;;;;9.01;100.00;100174.81;5013935;28;20773;-73
2024/03/14 06:09:39;;;;;;;;;;;;;;;9.05;100.00;100173.22;5012743;28;19925;-73
2024/03/14 06:12:05;;;;;;;;;;;;;;;9.10;100.00;100182.00;4978478;28;19928;-73
2024/03/14 06:14:32;;;;;;;;;;;;;;;9.13;100.00;100184.69;5013103;28;19943;-72
2024/03/14 06:16:58;;;;;;;;;;;;;;;9.18;100.00;100183.19;5010653;28;19917;-73
2024/03/14 06:19:23;;;;;;;;;;;;;;;9.28;100.00;100179.22;5009501;28;20454;-73
2024/03/14 06:21:50;;;;;;;;;;;;;;;9.29;100.00;100188.72;5006276;28;19969;-74
2024/03/14 06:24:16;;;;;;;;;;;;;;;9.33;100.00;100188.03;5008716;28;19921;-73
2024/03/14 06:26:42;;;;;;;;;;;;;;;9.36;100.00;100193.28;5011012;28;19968;-73
2024/03/14 06:29:07;;;;;;;;;;;;;;;9.35;100.00;100188.94;5009539;28;20370;-73
2024/03/14 06:31:33;;;;;;;;;;;;;;;9.36;100.00;100195.00;5009078;28;19928;-74
2024/03/14 06:33:59;;;;;;;;;;;;;;;9.35;100.00;100196.69;5009413;28;20038;-74
2024/03/14 06:36:24;;;;;;;;;;;;;;;9.40;100.00;100196.84;4980946;28;20573;-74
2024/03/14 06:38:49;;;;;;;;;;;;;;;9.44;100.00;100203.88;4981699;28;19921;-74
2024/03/14 06:41:15;;;;;;;;;;;;;;;9.47;100.00;100209.16;4982762;28;20072;-73
2024/03/14 06:43:42;;;;;;;;;;;;;;;9.52;100.00;100215.34;4982503;28;20443;-74
2024/03/14 06:46:08;;;;;;;;;;;;;;;9.58;100.00;100214.69;4950985;28;20025;-72
2024/03/14 06:48:33;;;;;;;;;;;;;;;9.62;100.00;100218.25;4982902;28;20487;-74
2024/03/14 06:50:59;;;;;;;;;;;;;;;9.64;100.00;100220.06;4981955;28;19918;-74
2024/03/14 06:53:25;;;;;;;;;;;;;;;9.67;100.00;100219.31;4984695;28;20327;-73
2024/03/14 06:55:51;;;;;;;;;;;;;;;9.66;100.00;100225.31;4980788;28;19933;-72
2024/03/14 06:58:16;;;;;;;;;;;;;;;9.63;100.00;100233.81;4982284;28;19933;-73
2024/03/14 07:00:42;;;;;;;;;;;;;;;9.68;100.00;100241.69;4981933;28;19918;-74
2024/03/14 07:03:07;;;;;;;;;;;;;;;9.70;100.00;100240.91;4978734;28;20415;-74
2024/03/14 07:05:33;;;;;;;;;;;;;;;9.70;100.00;100247.78;4983919;28;20069;-72
2024/03/14 07:07:58;;;;;;;;;;;;;;;9.75;100.00;100245.38;4985232;28;19976;-75
2024/03/14 07:10:25;;;;;;;;;;;;;;;9.67;100.00;100230.50;5006910;28;19972;-74
2024/03/14 07:12:51;;;;;;;;;;;;;;;9.63;100.00;100238.06;5005559;28;19936;-74
2024/03/14 07:15:19;;;;;;;;;;;;;;;9.63;100.00;100235.47;5004170;28;19922;-74
2024/03/14 07:17:44;;;;;;;;;;;;;;;9.68;100.00;100236.53;5005364;28;19921;-73
2024/03/14 07:20:10;;;;;;;;;;;;;;;9.71;100.00;100234.94;5008318;28;19917;-73
2024/03/14 07:22:39;;;;;;;;;;;;;;;9.69;100.00;100225.41;5007905;28;19924;-74
2024/03/14 07:25:08;;;;;;;;;;;;;;;9.73;100.00;100234.13;5008212;28;20407;-72
2024/03/14 07:27:34;;;;;;;;;;;;;;;9.78;100.00;100230.91;5009113;28;19933;-72
2024/03/14 07:30:02;;;;;;;;;;;;;;;9.81;100.00;100232.72;5003737;28;19917;-74
2024/03/14 07:32:28;;;;;;;;;;;;;;;9.82;100.00;100237.91;5003389;28;19921;-74
2024/03/14 07:34:55;;;;;;;;;;;;;;;9.73;100.00;100229.84;5003038;28;19953;-74
2024/03/14 07:37:23;;;;;;;;;;;;;;;9.77;100.00;100231.72;5004571;28;19993;-74
2024/03/14 07:39:53;;;;;;;;;;;;;;;9.69;100.00;100238.28;5003196;28;19948;-74
2024/03/14 07:42:18;;;;;;;;;;;;;;;9.68;100.00;100231.38;5002052;28;19936;-75
2024/03/14 07:44:45;;;;;;;;;;;;;;;9.70;100.00;100233.19;5002035;28;19926;-74
2024/03/14 07:47:19;;;;;;;;;;;;;;;9.74;100.00;100236.75;5009118;28;19917;-73
2024/03/14 07:49:47;;;;;;;;;;;;;;;9.80;100.00;100239.56;5008003;28;19936;-75
2024/03/14 07:52:13;;;;;;;;;;;;;;;9.84;100.00;100236.28;5006874;28;19987;-74
2024/03/14 07:54:39;;;;;;;;;;;;;;;9.81;100.00;100235.28;5008380;28;20551;-74
2024/03/14 07:57:05;;;;;;;;;;;;;;;9.55;100.00;100181.09;5008336;28;19925;-75
2024/03/14 07:59:32;;;;;;;;;;;;;;;9.70;100.00;100233.19;5005615;28;19926;-74
2024/03/14 08:01:58;;;;;;;;;;;;;;;9.71;100.00;100234.06;5005429;28;19924;-74
2024/03/14 08:04:24;;;;;;;;;;;;;;;9.73;100.00;100235.00;5006286;28;19957;-74
2024/03/14 08:06:50;;;;;;;;;;;;;;;9.73;100.00;100240.16;5006614;28;19968;-74
2024/03/14 08:09:19;;;;;;;;;;;;;;;9.78;100.00;100241.22;5002869;28;19926;-74
2024/03/14 08:11:44;;;;;;;;;;;;;;;9.88;100.00;100233.00;4989679;28;20004;-74
2024/03/14 08:14:10;;;;;;;;;;;;;;;9.98;100.00;100234.19;5005144;28;20431;-74
2024/03/14 08:16:37;;;;;;;;;;;;;;;10.08;100.00;100239.66;5005970;28;19925;-73
2024/03/14 08:19:02;;;;;;;;;;;;;;;10.15;100.00;100236.47;5004296;28;19918;-73
2024/03/14 08:21:29;;;;;;;;;;;;;;;10.15;100.00;100246.81;5004156;28;19922;-74
2024/03/14 08:23:58;;;;;;;;;;;;;;;10.15;100.00;100250.25;5004076;28;19925;-73
2024/03/14 08:26:23;;;;;;;;;;;;;;;10.19;100.00;100241.81;5006622;28;19918;-73
2024/03/14 08:28:54;;;;;;;;;;;;;;;10.28;100.00;100248.09;4952211;28;19928;-74
2024/03/14 08:31:21;;;;;;;;;;;;;;;10.38;100.00;100247.63;5001781;28;20388;-75
2024/03/14 08:33:50;;;;;;;;;;;;;;;10.47;100.00;100245.34;5002875;28;19933;-75
2024/03/14 08:36:16;;;;;;;;;;;;;;;10.49;100.00;100246.28;5008450;28;20021;-74
2024/03/14 08:38:41;;;;;;;;;;;;;;;10.59;100.00;100238.84;5011635;28;20403;-73
2024/03/14 08:41:07;;;;;;;;;;;;;;;10.66;100.00;100240.81;5010651;28;19961;-74
2024/03/14 08:43:33;;;;;;;;;;;;;;;10.72;100.00;100243.59;5010922;28;19926;-74
2024/03/14 08:45:59;;;;;;;;;;;;;;;10.82;100.00;100240.47;5002148;28;20383;-74
2024/03/14 08:48:24;;;;;;;;;;;;;;;10.83;100.00;100246.53;5010463;28;19921;-74
2024/03/14 08:50:49;;;;;;;;;;;;;;;10.86;100.00;100245.75;5011068;28;19921;-73
2024/03/14 08:53:15;;;;;;;;;;;;;;;10.89;100.00;100246.72;5010549;28;19964;-74
2024/03/14 08:55:50;;;;;;;;;;;;;;;11.02;100.00;100253.16;5010312;28;19961;-73
2024/03/14 08:58:15;;;;;;;;;;;;;;;10.94;100.00;100252.03;5010597;28;20306;-74
2024/03/14 09:00:41;;;;;;;;;;;;;;;11.09;100.00;100244.78;5010850;28;19971;-74
2024/03/14 09:03:06;;;;;;;;;;;;;;;11.13;100.00;100245.75;5010543;28;19925;-74
2024/03/14 09:05:32;;;;;;;;;;;;;;;11.33;100.00;100241.19;5010328;28;19971;-74
2024/03/14 09:07:58;;;;;;;;;;;;;;;11.31;100.00;100241.16;4975922;28;20311;-74
2024/03/14 09:10:25;;;;;;;;;;;;;;;11.38;100.00;100231.84;5010658;28;19921;-73
2024/03/14 09:12:50;;;;;;;;;;;;;;;11.44;100.00;100241.47;5010235;28;19921;-74
2024/03/14 09:15:18;;;;;;;;;;;;;;;11.44;100.00;100244.97;5010548;28;19922;-74
2024/03/14 09:17:45;;;;;;;;;;;;;;;11.48;100.00;100245.94;5009509;28;19917;-74
2024/03/14 09:20:16;;;;;;;;;;;;;;;11.52;100.00;100241.72;5009753;28;20311;-71
2024/03/14 09:22:43;;;;;;;;;;;;;;;11.60;100.00;100237.66;4997454;28;19918;-73
2024/03/14 09:25:14;;;;;;;;;;;;;;;11.55;100.00;100232.38;4993277;28;19972;-72
2024/03/14 09:27:39;;;;;;;;;;;;;;;11.64;100.00;100235.19;4979394;28;19968;-74
2024/03/14 09:30:08;;;;;;;;;;;;;;;11.81;100.00;100237.38;5014262;28;19969;-74
2024/03/14 09:32:34;;;;;;;;;;;;;;;11.84;100.00;100231.41;5012559;28;19921;-74
2024/03/14 09:34:59;;;;;;;;;;;;;;;11.75;100.00;100232.94;5014652;28;19925;-75
2024/03/14 09:37:25;;;;;;;;;;;;;;;11.85;100.00;100234.06;5013962;28;19914;-75
2024/03/14 09:39:51;;;;;;;;;;;;;;;11.89;100.00;100232.44;5014474;28;19939;-73
2024/03/14 09:42:17;;;;;;;;;;;;;;;11.92;100.00;100232.50;4993186;28;19933;-73
2024/03/14 09:44:43;;;;;;;;;;;;;;;11.96;100.00;100227.50;5026575;28;19968;-72
2024/03/14 09:47:20;;;;;;;;;;;;;;;11.89;100.00;100230.72;5024529;28;19971;-72
2024/03/14 09:49:48;;;;;;;;;;;;;;;11.94;100.00;100231.72;5019597;28;20055;-74
2024/03/14 09:52:13;;;;;;;;;;;;;;;11.99;100.00;100229.31;5018291;28;19972;-73
2024/03/14 09:54:39;;;;;;;;;;;;;;;11.95;100.00;100235.16;5025127;28;19968;-74
2024/03/14 09:57:05;;;;;;;;;;;;;;;12.06;100.00;100227.75;5025708;28;19921;-73
2024/03/14 09:59:31;;;;;;;;;;;;;;;12.13;100.00;100232.25;5019117;28;19944;-74
2024/03/14 10:01:57;;;;;;;;;;;;;;;12.23;100.00;100235.97;4989601;28;19921;-72
2024/03/14 10:04:22;;;;;;;;;;;;;;;12.28;100.00;100231.78;5021505;28;19926;-72
2024/03/14 10:06:48;;;;;;;;;;;;;;;12.25;100.00;100234.28;5026663;28;19921;-74
2024/03/14 10:09:15;;;;;;;;;;;;;;;12.21;100.00;100235.03;5023873;28;20402;-73
2024/03/14 10:11:44;;;;;;;;;;;;;;;12.17;100.00;100228.91;5019613;28;19926;-72
2024/03/14 10:14:22;;;;;;;;;;;;;;;12.19;100.00;100231.56;4988838;28;19921;-72
2024/03/14 10:16:48;;;;;;;;;;;;;;;12.25;100.00;100236.88;5020457;28;19917;-71
2024/03/14 10:19:13;;;;;;;;;;;;;;;12.18;100.00;100234.97;5023540;28;19972;-71
2024/03/14 10:21:38;;;;;;;;;;;;;;;12.29;100.00;100236.13;5022793;28;19967;-71
2024/03/14 10:24:09;;;;;;;;;;;;;;;12.33;100.00;100237.94;5022615;28;19925;-72
2024/03/14 10:26:34;;;;;;;;;;;;;;;12.36;100.00;100232.88;5022703;28;19926;-74
2024/03/14 10:29:01;;;;;;;;;;;;;;;12.37;100.00;100232.00;5022595;28;19929;-72
2024/03/14 10:31:26;;;;;;;;;;;;;;;12.30;100.00;100228.41;5023912;28;19948;-72
2024/03/14 10:33:53;;;;;;;;;;;;;;;12.45;100.00;100219.28;5024503;28;20391;-74
2024/03/14 10:36:19;;;;;;;;;;;;;;;12.56;100.00;100224.72;5022731;28;19955;-72
2024/03/14 10:38:45;;;;;;;;;;;;;;;12.43;100.00;100211.44;5023623;28;19921;-74
2024/03/14 10:41:14;;;;;;;;;;;;;;;12.42;100.00;100214.91;5024447;28;19965;-74
2024/03/14 10:43:41;;;;;;;;;;;;;;;12.33;100.00;100216.38;5016159;28;19925;-72
2024/03/14 10:46:13;;;;;;;;;;;;;;;12.26;100.00;100216.22;5012823;28;19936;-74
2024/03/14 10:48:39;;;;;;;;;;;;;;;12.29;100.00;100224.06;5012866;28;19926;-74
2024/03/14 10:51:06;;;;;;;;;;;;;;;12.45;100.00;100217.56;5013442;28;19928;-72
2024/03/14 10:53:33;;;;;;;;;;;;;;;12.36;100.00;100217.34;5012439;28;19921;-74
2024/03/14 10:56:00;;;;;;;;;;;;;;;12.44;100.00;100213.22;5012851;28;19921;-74
2024/03/14 10:58:26;;;;;;;;;;;;;;;12.43;100.00;100208.00;5000954;28;19925;-73
2024/03/14 11:00:53;;;;;;;;;;;;;;;12.38;100.00;100207.88;5012239;28;19989;-73
2024/03/14 11:03:18;;;;;;;;;;;;;;;12.52;100.00;100199.59;5012612;28;19925;-73
2024/03/14 11:05:50;;;;;;;;;;;;;;;12.60;100.00;100200.66;5012315;28;20358;-73
2024/03/14 11:08:17;;;;;;;;;;;;;;;12.72;100.00;100195.78;5013253;28;19925;-73
2024/03/14 11:10:43;;;;;;;;;;;;;;;12.68;100.00;100195.66;5012475;28;19922;-73
2024/03/14 11:13:15;;;;;;;;;;;;;;;12.69;100.00;100187.91;5012225;28;19944;-74
2024/03/14 11:15:42;;;;;;;;;;;;;;;12.78;100.00;100185.56;5012466;28;19929;-73
2024/03/14 11:18:13;;;;;;;;;;;;;;;12.74;100.00;100195.81;5012450;28;19928;-73
2024/03/14 11:20:40;;;;;;;;;;;;;;;12.55;100.00;100192.78;5012059;28;19925;-74
2024/03/14 11:23:10;;;;;;;;;;;;;;;12.67;100.00;100187.00;5011995;28;20399;-73
2024/03/14 11:25:38;;;;;;;;;;;;;;;12.74;100.00;100188.91;5011968;28;20327;-73
2024/03/14 11:28:04;;;;;;;;;;;;;;;12.73;100.00;100176.78;5011880;28;19918;-73
2024/03/14 11:30:32;;;;;;;;;;;;;;;12.74;100.00;100175.94;5012432;28;19917;-73
2024/03/14 11:33:05;;;;;;;;;;;;;;;12.75;100.00;100177.69;5011570;28;20024;-73
2024/03/14 11:35:34;;;;;;;;;;;;;;;12.65;100.00;100167.97;5011721;28;19955;-73
2024/03/14 11:38:04;;;;;;;;;;;;;;;12.71;100.00;100173.31;5012014;28;20012;-73
2024/03/14 11:40:33;;;;;;;;;;;;;;;12.76;100.00;100171.69;5011996;28;19921;-74
2024/03/14 11:42:59;;;;;;;;;;;;;;;12.86;100.00;100172.78;5011538;28;20440;-73
2024/03/14 11:45:26;;;;;;;;;;;;;;;12.95;100.00;100172.09;5011537;28;19963;-74
2024/03/14 11:47:52;;;;;;;;;;;;;;;13.00;100.00;100167.91;5004536;28;19922;-74
2024/03/14 11:50:22;;;;;;;;;;;;;;;13.07;100.00;100164.59;5012447;28;19921;-74
2024/03/14 11:52:49;;;;;;;;;;;;;;;13.15;100.00;100159.59;5011641;28;20008;-74
2024/03/14 11:55:18;;;;;;;;;;;;;;;13.18;100.00;100163.97;5002284;28;20182;-72
2024/03/14 11:57:47;;;;;;;;;;;;;;;13.18;100.00;100163.97;4976612;28;19925;-73
2024/03/14 12:00:20;;;;;;;;;;;;;;;13.23;100.00;100158.03;5011677;28;19929;-72
2024/03/14 12:02:46;;;;;;;;;;;;;;;13.29;100.00;100166.78;5011285;28;20015;-72
2024/03/14 12:05:19;;;;;;;;;;;;;;;13.28;100.00;100176.25;5011101;28;19951;-73
2024/03/14 12:07:46;;;;;;;;;;;;;;;13.29;100.00;100179.75;5011559;28;20372;-73
2024/03/14 12:10:11;;;;;;;;;;;;;;;12.58;100.00;100216.13;5007072;28;19973;-73
2024/03/14 12:12:37;;;;;;;;;;;;;;;11.30;100.00;100202.31;5009894;28;19957;-74
2024/03/14 12:15:03;;;;;;;;;;;;;;;10.81;100.00;100205.13;5011786;28;19932;-75
2024/03/14 12:17:56;;;;;;;;;;;;;;;10.29;100.00;100173.34;5000189;28;19918;-75
2024/03/14 12:20:25;;;;;;;;;;;;;;;10.31;100.00;100168.22;5000558;28;19927;-74
2024/03/14 12:22:51;;;;;;;;;;;;;;;10.23;100.00;100175.72;5000418;28;19918;-74
2024/03/14 12:25:16;;;;;;;;;;;;;;;10.24;100.00;100185.19;4999759;28;20075;-73
2024/03/14 12:27:43;;;;;;;;;;;;;;;10.35;100.00;100177.81;4995141;28;19917;-73
2024/03/14 12:30:15;;;;;;;;;;;;;;;10.40;100.00;100184.03;4995998;28;20471;-73